createdAt,value
2023-03-16T00:02:06.739Z,9.23
2023-03-16T00:04:37.844Z,9.22
2023-03-16T00:07:09.510Z,9.21
2023-03-16T00:09:40.836Z,9.22
2023-03-16T00:12:16.055Z,9.21
2023-03-16T00:14:44.945Z,9.19
2023-03-16T00:17:20.363Z,9.21
2023-03-16T00:19:55.192Z,9.21
2023-03-16T00:22:28.125Z,9.19
2023-03-16T00:24:55.273Z,9.17
2023-03-16T00:27:23.548Z,9.15
2023-03-16T00:29:56.144Z,9.17
2023-03-16T00:32:28.375Z,9.18
2023-03-16T00:34:55.772Z,9.24
2023-03-16T00:37:23.722Z,9.27
2023-03-16T00:39:51.661Z,9.30
2023-03-16T00:42:19.616Z,9.32
2023-03-16T00:44:46.863Z,9.35
2023-03-16T00:47:14.728Z,9.36
2023-03-16T00:49:44.641Z,9.39
2023-03-16T00:52:15.870Z,9.40
2023-03-16T00:54:43.622Z,9.42
2023-03-16T00:57:12.488Z,9.45
2023-03-16T00:59:39.556Z,9.46
2023-03-16T01:02:08.000Z,9.47
2023-03-16T01:04:36.499Z,9.46
2023-03-16T01:07:06.867Z,9.46
2023-03-16T01:09:36.972Z,9.49
2023-03-16T01:12:10.225Z,9.49
2023-03-16T01:14:37.562Z,9.48
2023-03-16T01:17:08.370Z,9.48
2023-03-16T01:19:37.878Z,9.49
2023-03-16T01:22:09.833Z,9.51
2023-03-16T01:24:37.420Z,9.52
2023-03-16T01:27:05.365Z,9.53
2023-03-16T01:29:33.122Z,9.53
2023-03-16T01:32:01.223Z,9.54
2023-03-16T01:34:28.667Z,9.54
2023-03-16T01:36:55.845Z,9.52
2023-03-16T01:39:22.436Z,9.52
2023-03-16T01:41:49.244Z,9.55
2023-03-16T01:44:20.168Z,9.55
2023-03-16T01:46:47.982Z,9.55
2023-03-16T01:49:16.687Z,9.55
2023-03-16T01:51:43.821Z,9.55
2023-03-16T01:54:20.155Z,9.55
2023-03-16T01:57:15.509Z,9.55
2023-03-16T01:59:49.289Z,9.55
2023-03-16T02:02:21.546Z,9.56
2023-03-16T02:05:07.172Z,9.56
2023-03-16T02:07:44.643Z,9.57
2023-03-16T02:10:14.554Z,9.56
2023-03-16T02:12:41.444Z,9.56
2023-03-16T02:15:08.771Z,9.58
2023-03-16T02:17:36.504Z,9.62
2023-03-16T02:20:06.073Z,9.63
2023-03-16T02:22:36.287Z,9.65
2023-03-16T02:25:03.515Z,9.66
2023-03-16T02:27:42.073Z,9.69
2023-03-16T02:30:13.905Z,9.70
2023-03-16T02:32:41.352Z,9.72
2023-03-16T02:35:09.096Z,9.74
2023-03-16T02:37:36.638Z,9.76
2023-03-16T02:40:17.004Z,9.76
2023-03-16T02:42:43.906Z,9.76
2023-03-16T02:45:10.826Z,9.76
2023-03-16T02:47:45.768Z,9.75
2023-03-16T02:50:13.061Z,9.76
2023-03-16T02:52:39.793Z,9.76
2023-03-16T02:55:07.515Z,9.77
2023-03-16T02:57:34.680Z,9.78
2023-03-16T03:00:01.521Z,9.79
2023-03-16T03:02:28.174Z,9.80
2023-03-16T03:04:55.935Z,9.81
2023-03-16T03:07:22.541Z,9.82
2023-03-16T03:09:49.134Z,9.82
2023-03-16T03:12:15.729Z,9.82
2023-03-16T03:14:42.386Z,9.83
2023-03-16T03:17:10.460Z,9.83
2023-03-16T03:19:37.372Z,9.83
2023-03-16T03:22:06.532Z,9.86
2023-03-16T03:24:34.562Z,9.87
2023-03-16T03:27:05.769Z,9.86
2023-03-16T03:29:36.393Z,9.85
2023-03-16T03:32:06.623Z,9.85
2023-03-16T03:34:33.322Z,9.84
2023-03-16T03:37:00.076Z,9.84
2023-03-16T03:39:26.710Z,9.85
2023-03-16T03:41:55.419Z,9.84
2023-03-16T03:44:23.015Z,9.86
2023-03-16T03:46:50.189Z,9.85
2023-03-16T03:49:19.157Z,9.83
2023-03-16T03:51:47.209Z,9.84
2023-03-16T03:54:13.821Z,9.85
2023-03-16T03:56:40.613Z,9.85
2023-03-16T03:59:07.312Z,9.85
2023-03-16T04:01:33.990Z,9.86
2023-03-16T04:04:00.699Z,9.84
2023-03-16T04:06:28.019Z,9.83
2023-03-16T04:08:54.787Z,9.83
2023-03-16T04:11:21.597Z,9.85
2023-03-16T04:13:48.255Z,9.86
2023-03-16T04:16:16.376Z,9.85
2023-03-16T04:18:43.299Z,9.83
2023-03-16T04:21:15.984Z,9.84
2023-03-16T04:23:43.847Z,9.85
2023-03-16T04:26:11.189Z,9.83
2023-03-16T04:28:37.882Z,9.87
2023-03-16T04:31:07.268Z,9.86
2023-03-16T04:33:35.421Z,9.87
2023-03-16T04:36:02.754Z,9.87
2023-03-16T04:38:30.784Z,9.88
2023-03-16T04:40:58.455Z,9.88
2023-03-16T04:43:25.223Z,9.87
2023-03-16T04:45:51.994Z,9.88
2023-03-16T04:48:18.827Z,9.88
2023-03-16T04:50:47.341Z,9.90
2023-03-16T04:53:14.172Z,9.91
2023-03-16T04:55:41.945Z,9.93
2023-03-16T04:58:08.553Z,9.95
2023-03-16T05:00:35.179Z,9.95
2023-03-16T05:03:02.816Z,9.97
2023-03-16T05:05:29.810Z,9.96
2023-03-16T05:07:56.631Z,9.96
2023-03-16T05:10:23.469Z,9.99
2023-03-16T05:12:50.333Z,10.00
2023-03-16T05:15:17.002Z,10.02
2023-03-16T05:17:43.624Z,10.02
2023-03-16T05:20:25.999Z,10.03
2023-03-16T05:22:52.601Z,10.02
2023-03-16T05:25:20.538Z,10.02
2023-03-16T05:27:49.766Z,10.04
2023-03-16T05:30:17.601Z,10.06
2023-03-16T05:32:45.081Z,10.05
2023-03-16T05:35:13.590Z,10.05
2023-03-16T05:37:41.703Z,10.08
2023-03-16T05:40:14.276Z,10.07
2023-03-16T05:42:41.021Z,10.08
2023-03-16T05:45:08.307Z,10.07
2023-03-16T05:47:37.304Z,10.06
2023-03-16T05:50:05.831Z,10.06
2023-03-16T05:52:33.856Z,10.05
2023-03-16T05:55:00.703Z,10.03
2023-03-16T05:57:27.369Z,10.02
2023-03-16T05:59:54.648Z,10.01
2023-03-16T06:02:21.385Z,10.01
2023-03-16T06:04:48.000Z,10.02
2023-03-16T06:07:14.682Z,10.01
2023-03-16T06:09:41.303Z,10.02
2023-03-16T06:12:08.044Z,10.04
2023-03-16T06:14:34.720Z,10.04
2023-03-16T06:17:01.377Z,10.02
2023-03-16T06:19:27.992Z,10.01
2023-03-16T06:21:54.687Z,10.00
2023-03-16T06:24:21.389Z,9.99
2023-03-16T06:26:47.988Z,9.97
2023-03-16T06:29:14.844Z,9.96
2023-03-16T06:31:41.605Z,9.96
2023-03-16T06:34:08.327Z,9.95
2023-03-16T06:36:35.459Z,9.95
2023-03-16T06:39:02.133Z,9.96
2023-03-16T06:41:28.703Z,9.98
2023-03-16T06:43:55.368Z,9.99
2023-03-16T06:46:22.138Z,10.04
2023-03-16T06:48:48.899Z,10.06
2023-03-16T06:51:16.835Z,10.09
2023-03-16T06:53:43.641Z,10.11
2023-03-16T06:56:10.235Z,10.13
2023-03-16T06:58:36.930Z,10.14
2023-03-16T07:01:04.764Z,10.14
2023-03-16T07:03:31.850Z,10.15
2023-03-16T07:05:58.552Z,10.17
2023-03-16T07:08:25.278Z,10.20
2023-03-16T07:10:52.253Z,10.23
2023-03-16T07:13:18.882Z,10.25
2023-03-16T07:15:45.479Z,10.23
2023-03-16T07:18:12.460Z,10.22
2023-03-16T07:20:39.159Z,10.21
2023-03-16T07:23:05.795Z,10.20
2023-03-16T07:25:32.435Z,10.18
2023-03-16T07:27:59.104Z,10.16
2023-03-16T07:30:25.855Z,10.16
2023-03-16T07:32:53.264Z,10.15
2023-03-16T07:35:20.229Z,10.16
2023-03-16T07:37:46.885Z,10.16
2023-03-16T07:40:14.511Z,10.17
2023-03-16T07:42:41.170Z,10.19
2023-03-16T07:45:08.538Z,10.21
2023-03-16T07:47:35.510Z,10.23
2023-03-16T07:50:02.333Z,10.24
2023-03-16T07:52:29.039Z,10.26
2023-03-16T07:54:55.793Z,10.28
2023-03-16T07:57:22.685Z,10.28
2023-03-16T07:59:49.268Z,10.29
2023-03-16T08:02:18.403Z,10.30
2023-03-16T08:04:46.415Z,10.33
2023-03-16T08:07:14.808Z,10.36
2023-03-16T08:09:41.959Z,10.41
2023-03-16T08:12:09.781Z,10.46
2023-03-16T08:14:37.284Z,10.50
2023-03-16T08:17:05.206Z,10.54
2023-03-16T08:19:32.612Z,10.61
2023-03-16T08:22:02.098Z,10.72
2023-03-16T08:24:29.771Z,10.86
2023-03-16T08:26:57.601Z,10.98
2023-03-16T08:29:25.244Z,11.09
2023-03-16T08:31:57.939Z,11.17
2023-03-16T08:34:25.093Z,11.27
2023-03-16T08:36:51.819Z,11.36
2023-03-16T08:39:18.547Z,11.43
2023-03-16T08:41:46.110Z,11.46
2023-03-16T08:44:13.142Z,11.49
2023-03-16T08:46:40.879Z,11.46
2023-03-16T08:49:08.833Z,11.44
2023-03-16T08:51:35.481Z,11.42
2023-03-16T08:54:04.820Z,11.40
2023-03-16T08:56:32.458Z,11.39
2023-03-16T08:58:59.890Z,11.39
2023-03-16T09:01:26.829Z,11.41
2023-03-16T09:03:53.634Z,11.48
2023-03-16T09:06:20.477Z,11.59
2023-03-16T09:08:47.838Z,11.70
2023-03-16T09:11:17.778Z,11.81
2023-03-16T09:13:44.853Z,11.95
2023-03-16T09:16:13.081Z,12.08
2023-03-16T09:18:40.614Z,12.21
2023-03-16T09:21:10.458Z,12.36
2023-03-16T09:23:41.885Z,12.45
2023-03-16T09:26:09.626Z,12.39
2023-03-16T09:28:38.852Z,12.29
2023-03-16T09:31:06.324Z,12.19
2023-03-16T09:33:34.357Z,12.14
2023-03-16T09:36:01.922Z,12.26
2023-03-16T09:38:28.948Z,12.95
2023-03-16T09:41:03.067Z,13.62
2023-03-16T09:43:38.703Z,14.98
2023-03-16T09:46:08.106Z,16.18
2023-03-16T09:48:37.670Z,16.82
2023-03-16T09:51:08.217Z,16.54
2023-03-16T09:53:39.149Z,16.87
2023-03-16T09:56:22.918Z,17.36
2023-03-16T09:58:49.794Z,17.34
2023-03-16T10:01:43.210Z,17.17
2023-03-16T10:04:17.022Z,17.32
2023-03-16T10:06:54.567Z,17.08
2023-03-16T10:09:23.802Z,16.73
2023-03-16T10:11:56.880Z,16.58
2023-03-16T10:14:30.861Z,16.36
2023-03-16T10:17:14.491Z,15.66
2023-03-16T10:19:47.498Z,15.04
2023-03-16T10:22:26.622Z,14.77
2023-03-16T10:25:08.711Z,14.82
2023-03-16T10:27:38.423Z,15.25
2023-03-16T10:30:14.682Z,15.45
2023-03-16T10:32:41.429Z,15.67
2023-03-16T10:35:28.694Z,16.37
2023-03-16T10:37:56.776Z,16.88
2023-03-16T10:40:23.561Z,17.71
2023-03-16T10:42:50.410Z,18.11
2023-03-16T10:45:25.466Z,18.62
2023-03-16T10:47:52.179Z,19.14
2023-03-16T10:50:25.243Z,18.62
2023-03-16T10:52:53.309Z,18.22
2023-03-16T10:55:24.736Z,17.99
2023-03-16T10:57:55.131Z,17.90
2023-03-16T11:00:36.644Z,17.84
2023-03-16T11:03:25.930Z,17.15
2023-03-16T11:06:00.881Z,17.32
2023-03-16T11:08:32.302Z,18.03
2023-03-16T11:11:08.473Z,18.13
2023-03-16T11:13:38.071Z,17.29
2023-03-16T11:16:13.917Z,16.81
2023-03-16T11:18:47.745Z,16.85
2023-03-16T11:21:25.805Z,16.65
2023-03-16T11:23:56.198Z,16.19
2023-03-16T11:26:34.023Z,15.71
2023-03-16T11:29:09.454Z,15.35
2023-03-16T11:31:46.166Z,15.09
2023-03-16T11:34:17.704Z,14.87
2023-03-16T11:36:53.498Z,14.69
2023-03-16T11:39:42.758Z,14.56
2023-03-16T11:42:24.135Z,14.45
2023-03-16T11:45:10.103Z,14.29
2023-03-16T11:47:58.238Z,14.24
2023-03-16T11:50:51.656Z,14.23
2023-03-16T11:53:27.506Z,14.24
2023-03-16T11:56:02.065Z,14.33
2023-03-16T11:58:57.961Z,14.39
2023-03-16T12:02:00.764Z,14.46
2023-03-16T12:05:09.800Z,14.47
2023-03-16T12:08:17.648Z,14.48
2023-03-16T12:10:56.456Z,14.49
2023-03-16T12:14:01.502Z,14.47
2023-03-16T12:16:49.082Z,14.54
2023-03-16T12:19:42.623Z,14.73
2023-03-16T12:22:24.046Z,14.91
2023-03-16T12:24:50.899Z,15.01
2023-03-16T12:27:27.212Z,15.05
2023-03-16T12:30:20.978Z,15.03
2023-03-16T12:33:08.872Z,15.02
2023-03-16T12:35:48.332Z,14.97
2023-03-16T12:38:37.951Z,15.02
2023-03-16T12:41:21.365Z,15.13
2023-03-16T12:43:51.156Z,15.16
2023-03-16T12:46:56.618Z,15.19
2023-03-16T12:49:28.817Z,15.31
2023-03-16T12:52:01.616Z,15.44
2023-03-16T12:54:28.593Z,15.46
2023-03-16T12:57:08.693Z,15.55
2023-03-16T12:59:45.709Z,15.62
2023-03-16T13:02:31.466Z,15.60
2023-03-16T13:05:30.147Z,15.62
2023-03-16T13:08:16.535Z,15.60
2023-03-16T13:11:01.824Z,15.54
2023-03-16T13:13:28.911Z,15.38
2023-03-16T13:16:07.052Z,15.27
2023-03-16T13:18:45.272Z,15.25
2023-03-16T13:21:37.261Z,15.34
2023-03-16T13:24:18.786Z,15.43
2023-03-16T13:27:06.620Z,15.45
2023-03-16T13:29:34.004Z,15.49
2023-03-16T13:32:11.511Z,15.63
2023-03-16T13:34:48.571Z,15.58
2023-03-16T13:37:18.119Z,15.61
2023-03-16T13:40:01.873Z,15.61
2023-03-16T13:42:33.616Z,15.52
2023-03-16T13:45:12.930Z,15.58
2023-03-16T13:47:43.236Z,15.76
2023-03-16T13:50:14.188Z,15.90
2023-03-16T13:52:44.195Z,16.10
2023-03-16T13:55:16.934Z,16.30
2023-03-16T13:57:45.454Z,16.42
2023-03-16T14:00:20.659Z,16.57
2023-03-16T14:02:52.160Z,16.64
2023-03-16T14:05:22.794Z,16.66
2023-03-16T14:07:53.814Z,16.66
2023-03-16T14:10:23.052Z,16.63
2023-03-16T14:12:58.773Z,16.62
2023-03-16T14:15:28.075Z,16.69
2023-03-16T14:18:05.063Z,16.69
2023-03-16T14:20:34.985Z,16.66
2023-03-16T14:23:20.535Z,16.64
2023-03-16T14:25:49.314Z,16.65
2023-03-16T14:28:19.194Z,16.77
2023-03-16T14:31:04.053Z,16.94
2023-03-16T14:33:37.820Z,16.96
2023-03-16T14:36:13.097Z,17.01
2023-03-16T14:38:41.802Z,17.12
2023-03-16T14:41:09.628Z,17.14
2023-03-16T14:43:40.320Z,17.26
2023-03-16T14:46:08.595Z,17.42
2023-03-16T14:48:35.931Z,17.47
2023-03-16T14:51:04.414Z,17.49
2023-03-16T14:53:31.838Z,17.52
2023-03-16T14:55:59.624Z,17.51
2023-03-16T14:58:26.644Z,17.54
2023-03-16T15:00:55.316Z,17.52
2023-03-16T15:03:30.394Z,17.48
2023-03-16T15:05:57.128Z,17.46
2023-03-16T15:08:27.526Z,17.44
2023-03-16T15:11:00.987Z,17.45
2023-03-16T15:13:57.014Z,17.48
2023-03-16T15:16:24.046Z,17.50
2023-03-16T15:18:51.936Z,17.47
2023-03-16T15:21:25.124Z,17.42
2023-03-16T15:23:52.348Z,17.36
2023-03-16T15:26:28.611Z,17.30
2023-03-16T15:28:57.030Z,17.18
2023-03-16T15:31:24.384Z,17.22
2023-03-16T15:33:51.063Z,17.06
2023-03-16T15:36:21.057Z,16.73
2023-03-16T15:38:50.504Z,16.30
2023-03-16T15:41:17.267Z,15.97
2023-03-16T15:43:45.829Z,15.78
2023-03-16T15:46:12.993Z,15.78
2023-03-16T15:48:39.965Z,15.94
2023-03-16T15:51:07.678Z,15.84
2023-03-16T15:53:41.505Z,15.71
2023-03-16T15:56:13.142Z,15.70
2023-03-16T15:58:43.458Z,15.50
2023-03-16T16:01:21.746Z,15.29
2023-03-16T16:03:50.227Z,15.12
2023-03-16T16:06:17.475Z,15.13
2023-03-16T16:08:44.499Z,15.32
2023-03-16T16:11:25.170Z,15.50
2023-03-16T16:13:52.060Z,15.66
2023-03-16T16:16:20.188Z,15.80
2023-03-16T16:18:48.372Z,15.88
2023-03-16T16:21:23.207Z,15.87
2023-03-16T16:23:51.475Z,15.87
2023-03-16T16:26:27.916Z,15.78
2023-03-16T16:28:58.811Z,15.55
2023-03-16T16:31:28.007Z,15.43
2023-03-16T16:33:54.680Z,15.42
2023-03-16T16:36:22.084Z,15.48
2023-03-16T16:38:50.100Z,15.49
2023-03-16T16:41:38.461Z,15.45
2023-03-16T16:44:13.622Z,15.48
2023-03-16T16:46:42.500Z,15.52
2023-03-16T16:49:19.614Z,15.55
2023-03-16T16:51:46.418Z,15.57
2023-03-16T16:54:18.793Z,15.52
2023-03-16T16:56:46.634Z,15.52
2023-03-16T16:59:23.042Z,15.55
2023-03-16T17:01:57.527Z,15.41
2023-03-16T17:04:27.264Z,15.20
2023-03-16T17:06:58.721Z,15.00
2023-03-16T17:09:27.253Z,14.84
2023-03-16T17:11:56.207Z,14.68
2023-03-16T17:14:24.006Z,14.52
2023-03-16T17:16:51.832Z,14.40
2023-03-16T17:19:24.573Z,14.27
2023-03-16T17:21:52.666Z,14.17
2023-03-16T17:24:19.404Z,14.05
2023-03-16T17:26:49.409Z,13.96
2023-03-16T17:29:25.644Z,13.89
2023-03-16T17:31:52.961Z,13.80
2023-03-16T17:34:25.371Z,13.74
2023-03-16T17:36:52.726Z,13.66
2023-03-16T17:39:21.184Z,13.61
2023-03-16T17:42:03.044Z,13.55
2023-03-16T17:44:50.849Z,13.45
2023-03-16T17:47:23.239Z,13.38
2023-03-16T17:49:50.762Z,13.33
2023-03-16T17:52:25.992Z,13.26
2023-03-16T17:54:53.993Z,13.18
2023-03-16T17:57:29.222Z,13.13
2023-03-16T17:59:56.138Z,13.10
2023-03-16T18:02:49.768Z,13.04
2023-03-16T18:05:22.712Z,12.98
2023-03-16T18:07:50.532Z,12.91
2023-03-16T18:10:26.352Z,12.86
2023-03-16T18:13:06.726Z,12.79
2023-03-16T18:15:36.606Z,12.73
2023-03-16T18:18:07.642Z,12.68
2023-03-16T18:20:36.632Z,12.61
2023-03-16T18:23:19.030Z,12.57
2023-03-16T18:25:46.063Z,12.51
2023-03-16T18:28:13.994Z,12.45
2023-03-16T18:30:47.400Z,12.42
2023-03-16T18:33:36.392Z,12.37
2023-03-16T18:36:07.968Z,12.32
2023-03-16T18:38:40.236Z,12.28
2023-03-16T18:41:17.408Z,12.23
2023-03-16T18:43:44.483Z,12.19
2023-03-16T18:46:32.003Z,12.17
2023-03-16T18:49:13.568Z,12.13
2023-03-16T18:51:41.781Z,12.10
2023-03-16T18:54:45.488Z,12.04
2023-03-16T18:57:20.293Z,12.00
2023-03-16T18:59:47.202Z,11.99
2023-03-16T19:02:38.884Z,11.92
2023-03-16T19:05:12.490Z,11.89
2023-03-16T19:08:01.815Z,11.85
2023-03-16T19:10:32.305Z,11.83
2023-03-16T19:12:59.525Z,11.80
2023-03-16T19:15:34.795Z,11.78
2023-03-16T19:18:01.459Z,11.73
2023-03-16T19:20:30.639Z,11.74
2023-03-16T19:23:06.484Z,11.70
2023-03-16T19:25:37.333Z,11.67
2023-03-16T19:28:06.367Z,11.66
2023-03-16T19:30:34.911Z,11.61
2023-03-16T19:33:02.056Z,11.60
2023-03-16T19:35:48.606Z,11.57
2023-03-16T19:38:16.728Z,11.50
2023-03-16T19:40:44.547Z,11.49
2023-03-16T19:43:17.640Z,11.46
2023-03-16T19:45:45.254Z,11.42
2023-03-16T19:48:16.669Z,11.40
2023-03-16T19:50:43.360Z,11.38
2023-03-16T19:53:21.908Z,11.34
2023-03-16T19:55:51.074Z,11.33
2023-03-16T19:58:35.269Z,11.31
2023-03-16T20:01:03.043Z,11.26
2023-03-16T20:03:33.409Z,11.22
2023-03-16T20:06:00.117Z,11.21
2023-03-16T20:08:29.118Z,11.18
2023-03-16T20:11:08.722Z,11.15
2023-03-16T20:13:36.315Z,11.15
2023-03-16T20:16:03.590Z,11.12
2023-03-16T20:18:30.497Z,11.11
2023-03-16T20:20:57.588Z,11.07
2023-03-16T20:23:29.370Z,11.06
2023-03-16T20:26:01.949Z,11.04
2023-03-16T20:28:36.975Z,11.00
2023-03-16T20:31:22.145Z,10.97
2023-03-16T20:33:50.477Z,10.93
2023-03-16T20:36:17.127Z,10.92
2023-03-16T20:38:44.343Z,10.86
2023-03-16T20:41:28.621Z,10.76
2023-03-16T20:43:56.443Z,10.71
2023-03-16T20:46:29.203Z,10.66
2023-03-16T20:48:56.622Z,10.58
2023-03-16T20:51:23.545Z,10.55
2023-03-16T20:53:51.368Z,10.56
2023-03-16T20:56:23.814Z,10.53
2023-03-16T20:58:51.683Z,10.53
2023-03-16T21:01:21.450Z,10.50
2023-03-16T21:03:55.232Z,10.49
2023-03-16T21:06:30.680Z,10.44
2023-03-16T21:09:00.958Z,10.43
2023-03-16T21:11:30.057Z,10.40
2023-03-16T21:13:56.970Z,10.36
2023-03-16T21:16:23.843Z,10.33
2023-03-16T21:18:50.981Z,10.30
2023-03-16T21:21:18.886Z,10.30
2023-03-16T21:23:46.208Z,10.25
2023-03-16T21:26:20.327Z,10.21
2023-03-16T21:28:56.573Z,10.19
2023-03-16T21:31:24.363Z,10.19
2023-03-16T21:33:52.030Z,10.18
2023-03-16T21:36:21.910Z,10.16
2023-03-16T21:38:50.893Z,10.16
2023-03-16T21:41:17.798Z,10.14
2023-03-16T21:43:44.845Z,10.08
2023-03-16T21:46:19.799Z,10.03
2023-03-16T21:48:49.724Z,10.02
2023-03-16T21:51:19.916Z,10.03
2023-03-16T21:53:48.659Z,9.99
2023-03-16T21:56:22.566Z,9.99
2023-03-16T21:58:50.525Z,9.96
2023-03-16T22:01:27.741Z,9.95
2023-03-16T22:04:02.376Z,9.93
2023-03-16T22:06:29.238Z,9.95
2023-03-16T22:08:57.617Z,9.89
2023-03-16T22:11:29.495Z,9.82
2023-03-16T22:13:57.789Z,9.79
2023-03-16T22:16:26.412Z,9.75
2023-03-16T22:18:56.394Z,9.74
2023-03-16T22:21:37.685Z,9.71
2023-03-16T22:24:17.650Z,9.71
2023-03-16T22:26:44.665Z,9.70
2023-03-16T22:29:23.835Z,9.70
2023-03-16T22:31:53.812Z,9.71
2023-03-16T22:34:32.203Z,9.73
2023-03-16T22:37:00.755Z,9.73
2023-03-16T22:39:29.451Z,9.74
2023-03-16T22:41:56.052Z,9.70
2023-03-16T22:44:23.808Z,9.64
2023-03-16T22:46:51.076Z,9.61
2023-03-16T22:49:24.920Z,9.62
2023-03-16T22:51:55.553Z,9.64
2023-03-16T22:54:26.054Z,9.62
2023-03-16T22:56:53.190Z,9.64
2023-03-16T22:59:23.880Z,9.63
2023-03-16T23:01:50.736Z,9.65
2023-03-16T23:04:30.218Z,9.61
2023-03-16T23:06:57.389Z,9.60
2023-03-16T23:09:24.639Z,9.60
2023-03-16T23:11:54.700Z,9.61
2023-03-16T23:14:37.053Z,9.61
2023-03-16T23:17:03.591Z,9.62
2023-03-16T23:19:34.077Z,9.60
2023-03-16T23:22:03.565Z,9.60
2023-03-16T23:24:31.098Z,9.61
2023-03-16T23:26:58.157Z,9.62
2023-03-16T23:29:26.315Z,9.62
2023-03-16T23:31:54.780Z,9.61
2023-03-16T23:34:23.810Z,9.61
2023-03-16T23:36:51.468Z,9.61
2023-03-16T23:39:18.685Z,9.62
2023-03-16T23:41:48.535Z,9.63
2023-03-16T23:44:22.346Z,9.62
2023-03-16T23:46:49.584Z,9.61
2023-03-16T23:49:22.441Z,9.57
2023-03-16T23:51:50.303Z,9.57
2023-03-16T23:54:23.484Z,9.56
2023-03-16T23:56:50.994Z,9.56
2023-03-16T23:59:19.222Z,9.57
